createdAt,value
2022-11-20T00:01:35.137Z,100256.88
2022-11-20T00:04:03.515Z,100258.74
2022-11-20T00:06:32.071Z,100266.00
2022-11-20T00:09:02.988Z,100269.79
2022-11-20T00:11:32.960Z,100266.14
2022-11-20T00:14:02.600Z,100262.16
2022-11-20T00:16:33.972Z,100258.54
2022-11-20T00:19:02.478Z,100263.92
2022-11-20T00:21:31.409Z,100273.14
2022-11-20T00:23:59.775Z,100269.13
2022-11-20T00:26:29.499Z,100264.45
2022-11-20T00:29:00.569Z,100258.47
2022-11-20T00:31:29.866Z,100258.72
2022-11-20T00:33:58.332Z,100259.39
2022-11-20T00:36:29.386Z,100259.36
2022-11-20T00:38:59.238Z,100264.48
2022-11-20T00:41:29.400Z,100264.91
2022-11-20T00:43:58.041Z,100254.67
2022-11-20T00:46:28.455Z,100255.25
2022-11-20T00:48:56.984Z,100255.45
2022-11-20T00:51:27.809Z,100253.64
2022-11-20T00:54:01.325Z,100252.92
2022-11-20T00:56:29.997Z,100257.05
2022-11-20T00:59:01.160Z,100254.45
2022-11-20T01:01:30.574Z,100252.05
2022-11-20T01:04:01.716Z,100247.73
2022-11-20T01:06:33.357Z,100245.61
2022-11-20T01:09:13.895Z,100244.41
2022-11-20T01:12:04.878Z,100236.40
2022-11-20T01:14:32.855Z,100234.16
2022-11-20T01:17:00.878Z,100233.02
2022-11-20T01:19:28.940Z,100228.50
2022-11-20T01:21:57.136Z,100229.77
2022-11-20T01:24:26.369Z,100228.41
2022-11-20T01:26:54.525Z,100225.32
2022-11-20T01:29:29.454Z,100226.15
2022-11-20T01:31:57.419Z,100220.90
2022-11-20T01:34:26.195Z,100218.73
2022-11-20T01:36:54.579Z,100215.64
2022-11-20T01:39:25.593Z,100211.46
2022-11-20T01:42:13.858Z,100211.87
2022-11-20T01:45:01.838Z,100210.15
2022-11-20T01:47:36.694Z,100213.12
2022-11-20T01:50:24.386Z,100211.01
2022-11-20T01:53:16.070Z,100211.66
2022-11-20T01:55:51.530Z,100207.09
2022-11-20T01:58:23.685Z,100203.35
2022-11-20T02:00:52.199Z,100202.35
2022-11-20T02:03:21.979Z,100201.92
2022-11-20T02:06:11.618Z,100203.73
2022-11-20T02:08:40.470Z,100202.86
2022-11-20T02:11:08.635Z,100199.67
2022-11-20T02:13:46.548Z,100202.66
2022-11-20T02:16:25.439Z,100202.05
2022-11-20T02:19:14.957Z,100206.05
2022-11-20T02:22:07.024Z,100207.08
2022-11-20T02:24:35.805Z,100209.92
2022-11-20T02:27:11.419Z,100210.86
2022-11-20T02:29:53.692Z,100213.40
2022-11-20T02:32:30.836Z,100208.49
2022-11-20T02:34:59.558Z,100207.23
2022-11-20T02:37:40.466Z,100208.38
2022-11-20T02:40:09.296Z,100211.73
2022-11-20T02:42:38.325Z,100213.86
2022-11-20T02:45:07.538Z,100213.31
2022-11-20T02:47:35.735Z,100208.52
2022-11-20T02:50:05.438Z,100212.60
2022-11-20T02:52:33.698Z,100217.02
2022-11-20T02:55:01.666Z,100222.71
2022-11-20T02:57:29.823Z,100224.92
2022-11-20T02:59:58.003Z,100219.67
2022-11-20T03:02:26.015Z,100217.28
2022-11-20T03:04:54.140Z,100214.73
2022-11-20T03:07:22.301Z,100218.73
2022-11-20T03:09:50.570Z,100217.27
2022-11-20T03:12:18.746Z,100218.52
2022-11-20T03:14:52.645Z,100217.36
2022-11-20T03:17:21.418Z,100211.95
2022-11-20T03:19:49.590Z,100210.12
2022-11-20T03:22:17.609Z,100208.13
2022-11-20T03:24:45.855Z,100201.33
2022-11-20T03:27:14.070Z,100202.05
2022-11-20T03:29:42.236Z,100205.55
2022-11-20T03:32:10.470Z,100201.77
2022-11-20T03:34:38.788Z,100202.77
2022-11-20T03:37:07.641Z,100200.20
2022-11-20T03:39:35.782Z,100200.35
2022-11-20T03:42:24.113Z,100201.34
2022-11-20T03:44:52.230Z,100198.10
2022-11-20T03:47:20.518Z,100195.25
2022-11-20T03:49:48.665Z,100190.94
2022-11-20T03:52:16.935Z,100187.25
2022-11-20T03:54:44.900Z,100184.98
2022-11-20T03:57:12.844Z,100188.15
2022-11-20T03:59:40.919Z,100188.61
2022-11-20T04:02:09.244Z,100186.23
2022-11-20T04:04:37.537Z,100185.40
2022-11-20T04:07:05.926Z,100185.91
2022-11-20T04:09:34.083Z,100183.11
2022-11-20T04:12:02.385Z,100185.20
2022-11-20T04:14:30.536Z,100189.27
2022-11-20T04:16:58.505Z,100182.34
2022-11-20T04:19:26.723Z,100184.91
2022-11-20T04:21:54.695Z,100181.15
2022-11-20T04:24:22.906Z,100182.44
2022-11-20T04:26:50.910Z,100178.20
2022-11-20T04:29:19.409Z,100178.23
2022-11-20T04:31:48.165Z,100175.55
2022-11-20T04:34:16.086Z,100170.80
2022-11-20T04:36:44.199Z,100167.35
2022-11-20T04:39:15.509Z,100164.42
2022-11-20T04:41:43.985Z,100168.96
2022-11-20T04:44:12.322Z,100166.55
2022-11-20T04:46:44.047Z,100164.81
2022-11-20T04:49:13.048Z,100164.27
2022-11-20T04:51:41.323Z,100161.56
2022-11-20T04:54:11.282Z,100160.95
2022-11-20T04:56:39.422Z,100161.17
2022-11-20T04:59:07.610Z,100158.41
2022-11-20T05:01:36.200Z,100151.44
2022-11-20T05:04:04.539Z,100149.59
2022-11-20T05:06:33.368Z,100148.75
2022-11-20T05:09:02.059Z,100147.46
2022-11-20T05:11:30.179Z,100148.89
2022-11-20T05:14:01.172Z,100149.90
2022-11-20T05:16:29.502Z,100147.66
2022-11-20T05:18:57.815Z,100145.74
2022-11-20T05:21:25.970Z,100147.85
2022-11-20T05:23:54.119Z,100152.45
2022-11-20T05:26:23.370Z,100152.55
2022-11-20T05:28:52.468Z,100155.75
2022-11-20T05:31:27.139Z,100153.19
2022-11-20T05:33:58.245Z,100149.40
2022-11-20T05:36:26.797Z,100146.61
2022-11-20T05:39:00.999Z,100141.64
2022-11-20T05:41:30.759Z,100138.59
2022-11-20T05:44:00.261Z,100135.56
2022-11-20T05:46:29.632Z,100140.52
2022-11-20T05:48:59.186Z,100139.20
2022-11-20T05:51:27.914Z,100138.77
2022-11-20T05:53:59.971Z,100136.88
2022-11-20T05:56:28.292Z,100136.89
2022-11-20T05:58:57.220Z,100139.38
2022-11-20T06:01:27.601Z,100139.02
2022-11-20T06:03:56.103Z,100141.54
2022-11-20T06:06:24.482Z,100136.98
2022-11-20T06:08:52.586Z,100138.22
2022-11-20T06:11:21.078Z,100132.58
2022-11-20T06:13:49.279Z,100131.53
2022-11-20T06:16:21.642Z,100130.88
2022-11-20T06:18:52.571Z,100126.54
2022-11-20T06:21:23.297Z,100123.36
2022-11-20T06:23:51.981Z,100122.05
2022-11-20T06:26:22.833Z,100120.66
2022-11-20T06:28:51.896Z,100122.54
2022-11-20T06:31:23.075Z,100123.75
2022-11-20T06:33:51.961Z,100124.98
2022-11-20T06:36:23.781Z,100127.63
2022-11-20T06:38:52.229Z,100125.98
2022-11-20T06:41:22.665Z,100125.73
2022-11-20T06:43:51.440Z,100126.95
2022-11-20T06:46:20.860Z,100128.84
2022-11-20T06:48:50.257Z,100125.92
2022-11-20T06:51:18.760Z,100129.86
2022-11-20T06:53:46.870Z,100127.10
2022-11-20T06:56:15.344Z,100130.38
2022-11-20T06:58:43.551Z,100126.95
2022-11-20T07:01:14.149Z,100124.79
2022-11-20T07:03:43.046Z,100116.20
2022-11-20T07:06:12.018Z,100117.88
2022-11-20T07:08:40.219Z,100116.65
2022-11-20T07:11:09.752Z,100112.65
2022-11-20T07:13:37.997Z,100114.21
2022-11-20T07:16:08.402Z,100115.32
2022-11-20T07:18:37.436Z,100117.25
2022-11-20T07:21:08.305Z,100113.66
2022-11-20T07:23:37.049Z,100105.79
2022-11-20T07:26:10.962Z,100104.50
2022-11-20T07:28:46.650Z,100105.42
2022-11-20T07:31:19.062Z,100108.38
2022-11-20T07:33:48.138Z,100108.44
2022-11-20T07:36:16.458Z,100107.40
2022-11-20T07:38:44.628Z,100106.68
2022-11-20T07:41:12.673Z,100101.72
2022-11-20T07:43:41.588Z,100099.55
2022-11-20T07:46:10.227Z,100098.28
2022-11-20T07:48:38.675Z,100100.30
2022-11-20T07:51:06.955Z,100101.36
2022-11-20T07:53:35.287Z,100102.92
2022-11-20T07:56:05.172Z,100101.07
2022-11-20T07:58:35.677Z,100095.14
2022-11-20T08:01:08.634Z,100093.56
2022-11-20T08:03:38.923Z,100092.90
2022-11-20T08:06:07.883Z,100093.94
2022-11-20T08:08:40.041Z,100094.14
2022-11-20T08:11:29.404Z,100097.06
2022-11-20T08:14:12.855Z,100095.97
2022-11-20T08:16:43.994Z,100094.67
2022-11-20T08:19:18.155Z,100094.10
2022-11-20T08:21:47.008Z,100095.45
2022-11-20T08:24:15.417Z,100095.10
2022-11-20T08:26:43.663Z,100093.61
2022-11-20T08:29:11.974Z,100093.23
2022-11-20T08:31:40.156Z,100097.13
2022-11-20T08:34:28.280Z,100086.98
2022-11-20T08:36:56.497Z,100090.58
2022-11-20T08:39:24.821Z,100088.45
2022-11-20T08:41:52.922Z,100086.44
2022-11-20T08:44:21.802Z,100084.38
2022-11-20T08:46:49.890Z,100086.91
2022-11-20T08:49:19.312Z,100079.20
2022-11-20T08:51:49.551Z,100075.13
2022-11-20T08:54:20.942Z,100077.59
2022-11-20T08:56:49.953Z,100072.70
2022-11-20T08:59:36.748Z,100073.78
2022-11-20T09:02:09.339Z,100069.46
2022-11-20T09:04:39.322Z,100068.95
2022-11-20T09:07:07.904Z,100066.64
2022-11-20T09:09:36.049Z,100061.75
2022-11-20T09:12:04.376Z,100053.88
2022-11-20T09:14:33.155Z,100054.02
2022-11-20T09:17:03.756Z,100052.65
2022-11-20T09:19:36.163Z,100054.30
2022-11-20T09:22:04.789Z,100057.28
2022-11-20T09:24:34.012Z,100053.23
2022-11-20T09:27:06.631Z,100047.30
2022-11-20T09:29:37.957Z,100044.47
2022-11-20T09:32:07.315Z,100044.05
2022-11-20T09:34:35.654Z,100045.73
2022-11-20T09:37:06.369Z,100044.06
2022-11-20T09:39:40.332Z,100034.23
2022-11-20T09:42:43.630Z,100024.88
2022-11-20T09:45:49.979Z,100025.48
2022-11-20T09:48:42.386Z,100021.01
2022-11-20T09:51:53.179Z,100026.60
2022-11-20T09:54:27.906Z,100023.42
2022-11-20T09:57:06.638Z,100028.02
2022-11-20T09:59:50.556Z,100025.02
2022-11-20T10:02:25.188Z,100027.52
2022-11-20T10:04:56.716Z,100032.17
2022-11-20T10:07:33.910Z,100034.06
2022-11-20T10:10:02.270Z,100028.33
2022-11-20T10:13:17.810Z,100032.28
2022-11-20T10:15:57.649Z,100030.71
2022-11-20T10:18:47.213Z,100021.86
2022-11-20T10:21:23.979Z,100022.82
2022-11-20T10:24:05.519Z,100019.05
2022-11-20T10:26:53.815Z,100012.77
2022-11-20T10:29:35.043Z,100012.07
2022-11-20T10:32:12.821Z,100010.33
2022-11-20T10:35:02.449Z,100011.59
2022-11-20T10:37:35.275Z,100008.91
2022-11-20T10:40:09.350Z,99999.71
2022-11-20T10:42:52.475Z,99998.27
2022-11-20T10:45:26.697Z,99999.66
2022-11-20T10:48:29.266Z,100003.17
2022-11-20T10:51:27.826Z,99993.27
2022-11-20T10:54:28.189Z,99990.85
2022-11-20T10:57:11.826Z,99994.45
2022-11-20T10:59:58.759Z,99997.09
2022-11-20T11:02:42.951Z,100000.84
2022-11-20T11:05:21.889Z,99994.83
2022-11-20T11:08:01.082Z,99995.82
2022-11-20T11:10:50.196Z,99992.14
2022-11-20T11:13:46.650Z,99990.94
2022-11-20T11:16:54.172Z,99984.98
2022-11-20T11:19:23.291Z,99988.87
2022-11-20T11:21:56.181Z,99987.14
2022-11-20T11:24:44.984Z,99987.30
2022-11-20T11:27:23.866Z,99986.77
2022-11-20T11:30:04.146Z,99982.40
2022-11-20T11:32:32.363Z,99981.10
2022-11-20T11:35:22.416Z,99989.81
2022-11-20T11:37:52.324Z,99992.34
2022-11-20T11:40:25.227Z,99991.70
2022-11-20T11:43:01.669Z,99990.45
2022-11-20T11:45:30.553Z,99985.02
2022-11-20T11:48:01.930Z,99985.03
2022-11-20T11:50:32.356Z,99982.14
2022-11-20T11:53:14.281Z,99985.40
2022-11-20T11:56:00.162Z,99979.89
2022-11-20T11:58:51.382Z,99973.27
2022-11-20T12:01:39.699Z,99963.38
2022-11-20T12:04:35.907Z,99960.38
2022-11-20T12:07:51.609Z,99958.69
2022-11-20T12:10:30.477Z,99955.55
2022-11-20T12:13:25.856Z,99957.00
2022-11-20T12:15:54.448Z,99953.90
2022-11-20T12:18:23.947Z,99949.56
2022-11-20T12:20:54.464Z,99948.10
2022-11-20T12:23:38.792Z,99944.61
2022-11-20T12:26:33.859Z,99944.52
2022-11-20T12:29:23.350Z,99934.41
2022-11-20T12:32:32.811Z,99933.14
2022-11-20T12:35:26.910Z,99934.77
2022-11-20T12:38:16.962Z,99926.25
2022-11-20T12:41:12.971Z,99926.67
2022-11-20T12:44:28.176Z,99920.75
2022-11-20T12:47:47.664Z,99919.79
2022-11-20T12:51:00.334Z,99919.45
2022-11-20T12:53:42.393Z,99917.31
2022-11-20T12:56:33.420Z,99915.23
2022-11-20T12:59:34.496Z,99907.32
2022-11-20T13:02:43.945Z,99904.88
2022-11-20T13:05:30.960Z,99902.83
2022-11-20T13:07:59.717Z,99904.50
2022-11-20T13:10:58.795Z,99905.23
2022-11-20T13:13:32.318Z,99893.27
2022-11-20T13:16:32.283Z,99889.36
2022-11-20T13:19:06.597Z,99885.52
2022-11-20T13:21:50.672Z,99884.15
2022-11-20T13:24:29.407Z,99882.40
2022-11-20T13:27:14.095Z,99877.06
2022-11-20T13:29:46.962Z,99874.36
2022-11-20T13:32:21.200Z,99873.48
2022-11-20T13:35:10.180Z,99869.94
2022-11-20T13:37:39.505Z,99859.58
2022-11-20T13:40:13.265Z,99865.00
2022-11-20T13:42:56.107Z,99872.75
2022-11-20T13:45:31.016Z,99870.23
2022-11-20T13:48:04.916Z,99869.98
2022-11-20T13:50:39.315Z,99865.87
2022-11-20T13:53:43.311Z,99864.12
2022-11-20T13:56:36.486Z,99854.26
2022-11-20T13:59:16.216Z,99847.02
2022-11-20T14:01:47.313Z,99850.41
2022-11-20T14:04:20.561Z,99851.86
2022-11-20T14:06:50.415Z,99847.54
2022-11-20T14:09:29.375Z,99847.14
2022-11-20T14:11:58.307Z,99846.78
2022-11-20T14:14:28.938Z,99847.45
2022-11-20T14:17:21.475Z,99845.27
2022-11-20T14:19:52.395Z,99842.04
2022-11-20T14:22:26.696Z,99835.80
2022-11-20T14:25:06.290Z,99831.70
2022-11-20T14:27:37.635Z,99834.89
2022-11-20T14:30:40.088Z,99835.27
2022-11-20T14:33:21.237Z,99834.06
2022-11-20T14:35:55.759Z,99828.34
2022-11-20T14:38:43.830Z,99825.98
2022-11-20T14:41:32.227Z,99822.95
2022-11-20T14:44:03.816Z,99819.36
2022-11-20T14:46:34.162Z,99819.65
2022-11-20T14:49:05.287Z,99818.61
2022-11-20T14:51:42.769Z,99815.80
2022-11-20T14:54:27.465Z,99817.17
2022-11-20T14:57:01.515Z,99821.48
2022-11-20T14:59:33.814Z,99820.83
2022-11-20T15:02:10.299Z,99816.80
2022-11-20T15:04:58.216Z,99812.55
2022-11-20T15:07:29.713Z,99815.80
2022-11-20T15:10:25.323Z,99814.60
2022-11-20T15:13:12.372Z,99814.00
2022-11-20T15:15:49.215Z,99813.01
2022-11-20T15:18:20.841Z,99805.34
2022-11-20T15:20:49.731Z,99802.39
2022-11-20T15:23:20.127Z,99797.86
2022-11-20T15:25:49.617Z,99802.58
2022-11-20T15:28:22.195Z,99800.07
2022-11-20T15:30:50.996Z,99800.51
2022-11-20T15:33:19.659Z,99807.00
2022-11-20T15:35:48.481Z,99813.30
2022-11-20T15:38:16.481Z,99815.06
2022-11-20T15:40:44.874Z,99817.08
2022-11-20T15:43:13.975Z,99805.78
2022-11-20T15:45:47.264Z,99806.02
2022-11-20T15:48:25.891Z,99807.80
2022-11-20T15:50:59.440Z,99803.55
2022-11-20T15:53:27.736Z,99803.58
2022-11-20T15:55:55.896Z,99804.80
2022-11-20T15:58:25.956Z,99808.02
2022-11-20T16:00:54.598Z,99810.21
2022-11-20T16:03:23.843Z,99808.38
2022-11-20T16:05:52.077Z,99804.88
2022-11-20T16:08:20.335Z,99803.07
2022-11-20T16:10:48.662Z,99801.91
2022-11-20T16:13:37.697Z,99798.89
2022-11-20T16:16:20.735Z,99796.16
2022-11-20T16:18:52.742Z,99797.30
2022-11-20T16:21:21.483Z,99794.39
2022-11-20T16:23:49.726Z,99791.45
2022-11-20T16:26:18.476Z,99792.70
2022-11-20T16:28:46.731Z,99792.95
2022-11-20T16:31:20.339Z,99796.40
2022-11-20T16:33:56.876Z,99797.06
2022-11-20T16:36:28.995Z,99796.82
2022-11-20T16:39:06.789Z,99800.41
2022-11-20T16:41:35.621Z,99797.08
2022-11-20T16:44:11.205Z,99797.59
2022-11-20T16:46:41.549Z,99795.07
2022-11-20T16:49:14.542Z,99792.71
2022-11-20T16:51:43.417Z,99792.55
2022-11-20T16:54:15.032Z,99789.88
2022-11-20T16:56:48.340Z,99790.11
2022-11-20T16:59:16.740Z,99790.39
2022-11-20T17:01:44.948Z,99790.51
2022-11-20T17:04:13.262Z,99788.62
2022-11-20T17:06:44.857Z,99786.16
2022-11-20T17:09:13.916Z,99787.89
2022-11-20T17:11:42.331Z,99789.95
2022-11-20T17:14:12.662Z,99787.52
2022-11-20T17:16:41.251Z,99784.43
2022-11-20T17:19:09.715Z,99785.75
2022-11-20T17:21:39.802Z,99781.77
2022-11-20T17:24:11.355Z,99779.48
2022-11-20T17:26:43.465Z,99786.21
2022-11-20T17:29:17.805Z,99788.39
2022-11-20T17:31:46.551Z,99785.83
2022-11-20T17:34:16.470Z,99783.86
2022-11-20T17:36:45.947Z,99776.41
2022-11-20T17:39:16.317Z,99777.13
2022-11-20T17:41:44.993Z,99774.03
2022-11-20T17:44:13.713Z,99770.23
2022-11-20T17:46:42.202Z,99763.41
2022-11-20T17:49:10.359Z,99752.52
2022-11-20T17:51:38.721Z,99753.62
2022-11-20T17:54:09.700Z,99745.54
2022-11-20T17:56:56.500Z,99738.36
2022-11-20T17:59:24.709Z,99736.01
2022-11-20T18:01:59.633Z,99727.20
2022-11-20T18:04:30.926Z,99726.34
2022-11-20T18:06:59.345Z,99726.10
2022-11-20T18:09:27.546Z,99725.05
2022-11-20T18:11:55.808Z,99720.52
2022-11-20T18:14:26.694Z,99720.52
2022-11-20T18:17:00.437Z,99718.13
2022-11-20T18:19:33.072Z,99716.65
2022-11-20T18:22:04.429Z,99713.99
2022-11-20T18:24:32.895Z,99710.41
2022-11-20T18:27:01.382Z,99705.19
2022-11-20T18:29:31.661Z,99695.66
2022-11-20T18:32:00.814Z,99695.48
2022-11-20T18:34:29.638Z,99698.28
2022-11-20T18:36:58.351Z,99699.23
2022-11-20T18:39:26.756Z,99703.90
2022-11-20T18:42:13.649Z,99705.14
2022-11-20T18:44:51.964Z,99703.48
2022-11-20T18:47:32.295Z,99702.19
2022-11-20T18:50:20.339Z,99705.77
2022-11-20T18:52:48.697Z,99701.39
2022-11-20T18:55:25.501Z,99701.36
2022-11-20T18:57:55.706Z,99698.72
2022-11-20T19:00:24.136Z,99698.81
2022-11-20T19:02:55.511Z,99700.90
2022-11-20T19:05:23.813Z,99704.80
2022-11-20T19:07:52.442Z,99705.98
2022-11-20T19:10:20.885Z,99704.09
2022-11-20T19:12:49.332Z,99701.76
2022-11-20T19:15:17.821Z,99693.80
2022-11-20T19:17:46.295Z,99683.44
2022-11-20T19:20:14.714Z,99684.94
2022-11-20T19:22:42.924Z,99683.04
2022-11-20T19:25:11.217Z,99685.61
2022-11-20T19:27:39.497Z,99684.07
2022-11-20T19:30:08.355Z,99678.58
2022-11-20T19:32:36.595Z,99676.70
2022-11-20T19:35:05.373Z,99672.33
2022-11-20T19:37:35.232Z,99673.53
2022-11-20T19:40:06.117Z,99666.66
2022-11-20T19:42:34.356Z,99668.25
2022-11-20T19:45:02.688Z,99663.87
2022-11-20T19:47:53.119Z,99660.04
2022-11-20T19:50:19.213Z,99659.12
2022-11-20T19:52:47.405Z,99658.13
2022-11-20T19:55:15.865Z,99659.77
2022-11-20T19:57:44.092Z,99655.99
2022-11-20T20:00:17.262Z,99654.95
2022-11-20T20:02:46.812Z,99650.40
2022-11-20T20:05:15.129Z,99647.73
2022-11-20T20:07:43.580Z,99641.01
2022-11-20T20:10:12.055Z,99631.10
2022-11-20T20:12:40.283Z,99637.74
2022-11-20T20:15:08.981Z,99638.55
2022-11-20T20:17:37.197Z,99639.48
2022-11-20T20:20:05.795Z,99641.25
2022-11-20T20:22:34.177Z,99643.18
2022-11-20T20:25:02.355Z,99643.63
2022-11-20T20:27:31.378Z,99645.39
2022-11-20T20:29:59.559Z,99648.09
2022-11-20T20:32:28.886Z,99646.13
2022-11-20T20:34:57.160Z,99643.67
2022-11-20T20:37:25.848Z,99644.50
2022-11-20T20:39:54.103Z,99646.14
2022-11-20T20:42:22.384Z,99641.86
2022-11-20T20:45:11.277Z,99638.23
2022-11-20T20:47:41.837Z,99640.38
2022-11-20T20:50:11.956Z,99631.55
2022-11-20T20:52:40.219Z,99631.63
2022-11-20T20:55:08.766Z,99639.75
2022-11-20T20:57:37.662Z,99638.08
2022-11-20T21:00:08.999Z,99638.34
2022-11-20T21:02:37.348Z,99641.20
2022-11-20T21:05:05.899Z,99636.20
2022-11-20T21:07:34.147Z,99632.27
2022-11-20T21:10:02.415Z,99628.58
2022-11-20T21:12:30.662Z,99633.13
2022-11-20T21:14:58.892Z,99631.13
2022-11-20T21:17:27.199Z,99633.28
2022-11-20T21:19:55.486Z,99632.09
2022-11-20T21:22:23.685Z,99632.23
2022-11-20T21:24:51.903Z,99634.17
2022-11-20T21:27:20.030Z,99633.08
2022-11-20T21:29:48.279Z,99629.17
2022-11-20T21:32:16.448Z,99626.35
2022-11-20T21:34:44.615Z,99619.48
2022-11-20T21:37:12.855Z,99621.33
2022-11-20T21:39:51.036Z,99620.46
2022-11-20T21:42:19.456Z,99622.08
2022-11-20T21:44:48.114Z,99620.05
2022-11-20T21:47:16.492Z,99622.43
2022-11-20T21:49:44.756Z,99620.17
2022-11-20T21:52:13.096Z,99619.28
2022-11-20T21:54:42.274Z,99618.10
2022-11-20T21:57:10.609Z,99618.84
2022-11-20T21:59:39.116Z,99622.04
2022-11-20T22:02:08.180Z,99624.30
2022-11-20T22:04:36.532Z,99626.46
2022-11-20T22:07:07.850Z,99627.73
2022-11-20T22:09:36.153Z,99620.99
2022-11-20T22:12:04.753Z,99622.45
2022-11-20T22:14:32.960Z,99626.98
2022-11-20T22:17:01.275Z,99624.84
2022-11-20T22:19:29.553Z,99624.52
2022-11-20T22:21:57.815Z,99625.39
2022-11-20T22:24:26.309Z,99624.08
2022-11-20T22:26:54.591Z,99629.96
2022-11-20T22:29:22.809Z,99627.52
2022-11-20T22:31:54.213Z,99621.09
2022-11-20T22:34:22.944Z,99616.36
2022-11-20T22:36:51.458Z,99607.89
2022-11-20T22:39:22.272Z,99603.09
2022-11-20T22:41:50.499Z,99602.64
2022-11-20T22:44:18.773Z,99608.88
2022-11-20T22:46:46.979Z,99611.23
2022-11-20T22:49:15.190Z,99611.29
2022-11-20T22:51:43.346Z,99613.09
2022-11-20T22:54:13.101Z,99611.51
2022-11-20T22:56:41.924Z,99606.91
2022-11-20T22:59:10.256Z,99603.52
2022-11-20T23:01:38.886Z,99608.39
2022-11-20T23:04:11.086Z,99607.23
2022-11-20T23:06:39.352Z,99613.87
2022-11-20T23:09:09.199Z,99615.77
2022-11-20T23:11:37.396Z,99621.29
2022-11-20T23:14:27.534Z,99616.45
2022-11-20T23:16:56.216Z,99615.05
2022-11-20T23:19:24.619Z,99614.85
2022-11-20T23:21:52.915Z,99615.42
2022-11-20T23:24:21.086Z,99616.61
2022-11-20T23:26:50.566Z,99616.98
2022-11-20T23:29:18.837Z,99620.47
2022-11-20T23:31:47.118Z,99624.41
2022-11-20T23:34:15.293Z,99630.54
2022-11-20T23:36:43.536Z,99635.30
2022-11-20T23:39:12.896Z,99634.36
2022-11-20T23:41:41.117Z,99631.82
2022-11-20T23:44:09.257Z,99632.48
2022-11-20T23:46:37.556Z,99628.62
2022-11-20T23:49:05.779Z,99622.77
2022-11-20T23:51:33.979Z,99623.39
2022-11-20T23:54:04.881Z,99625.11
2022-11-20T23:56:33.499Z,99627.38
2022-11-20T23:59:01.687Z,99623.57
